Map

Track Data

SID SEASON NUMBER BASIN SUBBASIN NAME ISO_TIME NATURE LAT LON WMO_WIND WMO_PRES WMO_AGENCY TRACK_TYPE DIST2LAND LANDFALL IFLAG USA_AGENCY USA_ATCF_ID USA_LAT USA_LON USA_RECORD USA_STATUS USA_WIND USA_PRES USA_SSHS USA_R34_NE USA_R34_SE USA_R34_SW USA_R34_NW USA_R50_NE USA_R50_SE USA_R50_SW USA_R50_NW USA_R64_NE USA_R64_SE USA_R64_SW USA_R64_NW USA_POCI USA_ROCI USA_RMW USA_EYE TOKYO_LAT TOKYO_LON TOKYO_GRADE TOKYO_WIND TOKYO_PRES TOKYO_R50_DIR TOKYO_R50_LONG TOKYO_R50_SHORT TOKYO_R30_DIR TOKYO_R30_LONG TOKYO_R30_SHORT TOKYO_LAND CMA_LAT CMA_LON CMA_CAT CMA_WIND CMA_PRES HKO_LAT HKO_LON HKO_CAT HKO_WIND HKO_PRES NEWDELHI_LAT NEWDELHI_LON NEWDELHI_GRADE NEWDELHI_WIND NEWDELHI_PRES NEWDELHI_CI NEWDELHI_DP NEWDELHI_POCI REUNION_LAT REUNION_LON REUNION_TYPE REUNION_WIND REUNION_PRES REUNION_TNUM REUNION_CI REUNION_RMW REUNION_R34_NE REUNION_R34_SE REUNION_R34_SW REUNION_R34_NW REUNION_R50_NE REUNION_R50_SE REUNION_R50_SW REUNION_R50_NW REUNION_R64_NE REUNION_R64_SE REUNION_R64_SW REUNION_R64_NW BOM_LAT BOM_LON BOM_TYPE BOM_WIND BOM_PRES BOM_TNUM BOM_CI BOM_RMW BOM_R34_NE BOM_R34_SE BOM_R34_SW BOM_R34_NW BOM_R50_NE BOM_R50_SE BOM_R50_SW BOM_R50_NW BOM_R64_NE BOM_R64_SE BOM_R64_SW BOM_R64_NW BOM_ROCI BOM_POCI BOM_EYE BOM_POS_METHOD BOM_PRES_METHOD NADI_LAT NADI_LON NADI_CAT NADI_WIND NADI_PRES WELLINGTON_LAT WELLINGTON_LON WELLINGTON_WIND WELLINGTON_PRES DS824_LAT DS824_LON DS824_STAGE DS824_WIND DS824_PRES TD9636_LAT TD9636_LON TD9636_STAGE TD9636_WIND TD9636_PRES TD9635_LAT TD9635_LON TD9635_WIND TD9635_PRES TD9635_ROCI NEUMANN_LAT NEUMANN_LON NEUMANN_CLASS NEUMANN_WIND NEUMANN_PRES MLC_LAT MLC_LON MLC_CLASS MLC_WIND MLC_PRES USA_GUST BOM_GUST BOM_GUST_PER REUNION_GUST REUNION_GUST_PER USA_SEAHGT USA_SEARAD_NE USA_SEARAD_SE USA_SEARAD_SW USA_SEARAD_NW STORM_SPEED STORM_DIR
1940091S13155 1940 19 SP EA NOT_NAMED 1940-03-30 23:00:00 NR -13.0000 155.000 999 bom main 539 539 ______O_______ -1 -13.0000 155.000 999 3 238
1940091S13155 1940 19 SP EA NOT_NAMED 1940-03-31 00:00:00 TS -13.0300 154.968 main 539 526 ______P__O____ -1 -13.0451 154.952 -13.0000 155.000 TC 30 999 4 227
1940091S13155 1940 19 SP EA NOT_NAMED 1940-03-31 03:00:00 NR -13.1794 154.807 main 532 523 ______P__P____ -1 -13.1794 154.807 -13.0806 154.903 TC 4 226
1940091S13155 1940 19 SP EA NOT_NAMED 1940-03-31 06:00:00 NR -13.3109 154.665 main 530 518 ______P__P____ -1 -13.3109 154.665 -13.1610 154.806 TC 4 227
1940091S13155 1940 19 SP EA NOT_NAMED 1940-03-31 09:00:00 NR -13.4374 154.527 main 518 517 ______P__P____ -1 -13.4374 154.527 -13.2412 154.710 TC 4 227
1940091S13155 1940 19 SP EA NOT_NAMED 1940-03-31 12:00:00 NR -13.5568 154.395 main 524 515 ______P__P____ -1 -13.5568 154.395 -13.3209 154.614 TC 3 227
1940091S13155 1940 19 SP EA NOT_NAMED 1940-03-31 15:00:00 NR -13.6670 154.272 main 523 515 ______P__P____ -1 -13.6670 154.272 -13.4001 154.519 TC 3 228
1940091S13155 1940 19 SP EA NOT_NAMED 1940-03-31 18:00:00 NR -13.7659 154.159 main 522 514 ______P__P____ -1 -13.7659 154.159 -13.4786 154.426 TC 3 228
1940091S13155 1940 19 SP EA NOT_NAMED 1940-03-31 21:00:00 NR -13.8514 154.059 main 522 499 ______P__P____ -1 -13.8514 154.059 -13.5564 154.333 TC 3 258
1940091S13155 1940 19 SP EA NOT_NAMED 1940-03-31 23:00:00 NR -13.8200 153.900 996 bom main 499 491 ______O__PO___ -1 -13.9000 154.000 996 -13.6077 154.273 TC -13.5000 153.500 7 5 284
1940091S13155 1940 19 SP EA NOT_NAMED 1940-04-01 00:00:00 NR -13.7927 153.810 main 491 484 ______P__PP___ -1 -13.9215 153.973 -13.6332 154.242 TC -13.5350 153.483 7 3 266
1940091S13155 1940 19 SP EA NOT_NAMED 1940-04-01 03:00:00 NR -13.8318 153.701 main 484 484 ______P__PP___ -1 -13.9763 153.901 -13.7090 154.153 TC -13.6393 153.433 7 2 245
1940091S13155 1940 19 SP EA NOT_NAMED 1940-04-01 06:00:00 NR -13.8799 153.613 main 485 485 ______P__PP___ -1 -14.0188 153.842 -13.7836 154.066 TC -13.7410 153.383 7 2 230
1940091S13155 1940 19 SP EA NOT_NAMED 1940-04-01 09:00:00 NR -13.9456 153.563 main 485 485 ______P__PP___ -1 -14.0527 153.792 -13.8569 153.982 TC -13.8384 153.333 7 2 216
1940091S13155 1940 19 SP EA NOT_NAMED 1940-04-01 11:00:00 NR -13.9861 153.531 main 487 487 ______P__PO___ -1 -14.0723 153.762 -13.9050 153.926 TC -13.9000 153.300 7 2 209
1940091S13155 1940 19 SP EA NOT_NAMED 1940-04-01 12:00:00 NR -14.0056 153.516 main 487 487 ______P__PP___ -1 -14.0815 153.748 -13.9289 153.899 TC -13.9296 153.283 7 1 219
1940091S13155 1940 19 SP EA NOT_NAMED 1940-04-01 15:00:00 NR -14.0610 153.471 main 496 489 ______P__PP___ -1 -14.1087 153.708 -13.9992 153.820 TC -14.0133 153.233 7 1 218
1940091S13155 1940 19 SP EA NOT_NAMED 1940-04-01 18:00:00 NR -14.1137 153.426 main 489 489 ______P__PP___ -1 -14.1378 153.670 -14.0680 153.743 TC -14.0896 153.183 7 1 220
1940091S13155 1940 19 SP EA NOT_NAMED 1940-04-01 21:00:00 NR -14.1653 153.381 main 498 498 ______P__PP___ -1 -14.1723 153.629 -14.1349 153.670 TC -14.1583 153.133 7 1 223
1940091S13155 1940 19 SP EA NOT_NAMED 1940-04-01 23:00:00 NR -14.2000 153.350 995 bom main 498 498 ______O__PO___ -1 -14.2000 153.600 995 -14.1785 153.623 TC -14.2000 153.100 7 1 206
1940091S13155 1940 19 SP EA NOT_NAMED 1940-04-02 00:00:00 TS -14.2157 153.362 main 498 492 ______P__OP___ -1 -14.2166 153.582 -14.2000 153.600 TC 40 995 -14.2188 153.083 7 1 185
1940091S13155 1940 19 SP EA NOT_NAMED 1940-04-02 03:00:00 TS -14.2682 153.330 main 501 501 ______P__PP___ -1 -14.2697 153.525 -14.2634 153.534 TC -14.2691 153.033 7 1 211
1940091S13155 1940 19 SP EA NOT_NAMED 1940-04-02 06:00:00 TS -14.3231 153.292 main 501 501 ______P__PP___ -1 -14.3283 153.466 -14.3265 153.470 TC -14.3153 152.983 7 1 213
1940091S13155 1940 19 SP EA NOT_NAMED 1940-04-02 09:00:00 TS -14.3826 153.249 main 504 504 ______P__PP___ -1 -14.3930 153.406 -14.3911 153.409 TC -14.3636 152.933 7 2 219
1940091S13155 1940 19 SP EA NOT_NAMED 1940-04-02 11:00:00 TS -14.4253 153.211 main 504 504 ______P__PO___ -1 -14.4400 153.365 -14.4360 153.368 TC -14.4000 152.900 7 2 222
1940091S13155 1940 19 SP EA NOT_NAMED 1940-04-02 12:00:00 TS -14.4481 153.192 main 504 504 ______P__PP___ -1 -14.4647 153.344 -14.4591 153.348 TC -14.4204 152.885 7 2 216
1940091S13155 1940 19 SP EA NOT_NAMED 1940-04-02 15:00:00 TS -14.5210 153.135 main 508 508 ______P__PP___ -1 -14.5442 153.280 -14.5322 153.288 TC -14.4867 152.839 7 2 216
1940091S13155 1940 19 SP EA NOT_NAMED 1940-04-02 18:00:00 TS -14.6016 153.077 main 518 512 ______P__PP___ -1 -14.6322 153.214 -14.6122 153.227 TC -14.5604 152.791 7 2 213
1940091S13155 1940 19 SP EA NOT_NAMED 1940-04-02 21:00:00 TS -14.6907 153.017 main 522 522 ______P__PP___ -1 -14.7295 153.146 -14.7009 153.165 TC -14.6417 152.739 7 2 212
1940091S13155 1940 19 SP EA NOT_NAMED 1940-04-02 23:00:00 TS -14.7552 152.974 995 bom main 532 532 ______O__PO___ -1 -14.8000 153.100 995 -14.7657 153.122 TC -14.7000 152.700 7 2 208
1940091S13155 1940 19 SP EA NOT_NAMED 1940-04-03 00:00:00 TS -14.7899 152.953 main 532 527 ______P__OP___ -1 -14.8409 153.079 -14.8000 153.100 TC 40 995 -14.7287 152.680 7 3 208
1940091S13155 1940 19 SP EA NOT_NAMED 1940-04-03 03:00:00 TS -14.9069 152.890 main 537 537 ______P__PP___ -1 -14.9731 153.016 -14.9276 153.039 TC -14.8200 152.613 7 3 207
1940091S13155 1940 19 SP EA NOT_NAMED 1940-04-03 06:00:00 TS -15.0340 152.823 main 542 542 ______P__PP___ -1 -15.1159 152.952 -15.0674 152.978 TC -14.9187 152.540 7 3 207
1940091S13155 1940 19 SP EA NOT_NAMED 1940-04-03 09:00:00 TS -15.1681 152.752 main 563 558 ______P__PP___ -1 -15.2647 152.885 -15.2147 152.913 TC -15.0250 152.458 7 3 208
1940091S13155 1940 19 SP EA NOT_NAMED 1940-04-03 11:00:00 TS -15.2599 152.702 main 569 569 ______P__PO___ -1 -15.3648 152.838 -15.3147 152.868 TC -15.1000 152.400 7 3 205
1940091S13155 1940 19 SP EA NOT_NAMED 1940-04-03 12:00:00 TS -15.3072 152.676 main 569 569 ______P__PP___ -1 -15.4147 152.813 -15.3648 152.845 TC -15.1420 152.370 7 3 209
1940091S13155 1940 19 SP EA NOT_NAMED 1940-04-03 15:00:00 TS -15.4498 152.594 main 575 575 ______P__PP___ -1 -15.5613 152.737 -15.5131 152.771 TC -15.2751 152.275 7 3 210
1940091S13155 1940 19 SP EA NOT_NAMED 1940-04-03 18:00:00 TS -15.5879 152.506 main 592 592 ______P__PP___ -1 -15.6999 152.655 -15.6548 152.690 TC -15.4090 152.173 7 3 214
1940091S13155 1940 19 SP EA NOT_NAMED 1940-04-03 21:00:00 TS -15.7140 152.411 main 599 599 ______P__PP___ -1 -15.8256 152.565 -15.7854 152.600 TC -15.5312 152.069 7 3 218
1940091S13155 1940 19 SP EA NOT_NAMED 1940-04-03 23:00:00 TS -15.7879 152.345 995 bom main 606 606 ______O__PO___ -1 -15.9000 152.500 995 -15.8638 152.535 TC -15.6000 152.000 7 3 223
1940091S13155 1940 19 SP EA NOT_NAMED 1940-04-04 00:00:00 TS -15.8188 152.314 main 606 606 ______P__OP___ -1 -15.9310 152.472 -15.9000 152.500 TC 40 995 -15.6255 151.969 7 2 227
1940091S13155 1940 19 SP EA NOT_NAMED 1940-04-04 03:00:00 TS -15.8951 152.222 main 609 594 ______P__PP___ -1 -16.0142 152.385 -15.9862 152.405 TC -15.6849 151.877 7 2 233
1940091S13155 1940 19 SP EA NOT_NAMED 1940-04-04 06:00:00 TS -15.9568 152.125 main 594 588 ______P__PP___ -1 -16.0839 152.291 -16.0580 152.301 TC -15.7285 151.782 7 2 240
1940091S13155 1940 19 SP EA NOT_NAMED 1940-04-04 09:00:00 TS -16.0093 152.018 main 588 581 ______P__PP___ -1 -16.1416 152.188 -16.1176 152.188 TC -15.7688 151.678 7 2 245
1940091S13155 1940 19 SP EA NOT_NAMED 1940-04-04 11:00:00 TS -16.0419 151.939 main 581 572 ______P__PO___ -1 -16.1742 152.112 -16.1514 152.105 TC -15.8000 151.600 7 3 246
1940091S13155 1940 19 SP EA NOT_NAMED 1940-04-04 12:00:00 TS -16.0595 151.899 main 572 566 ______P__PP___ -1 -16.1890 152.072 -16.1668 152.062 TC -15.8229 151.562 7 3 247
1940091S13155 1940 19 SP EA NOT_NAMED 1940-04-04 15:00:00 TS -16.1109 151.767 main 566 545 ______P__PP___ -1 -16.2276 151.942 -16.2077 151.923 TC -15.8974 151.438 7 3 250
1940091S13155 1940 19 SP EA NOT_NAMED 1940-04-04 18:00:00 TS -16.1592 151.619 main 545 540 ______P__PP___ -1 -16.2591 151.794 -16.2422 151.767 TC -15.9762 151.295 7 3 253
1940091S13155 1940 19 SP EA NOT_NAMED 1940-04-04 21:00:00 TS -16.2035 151.449 main 534 529 ______P__PP___ -1 -16.2851 151.625 -16.2723 151.593 TC -16.0530 151.128 7 4 256
1940091S13155 1940 19 SP EA NOT_NAMED 1940-04-04 23:00:00 TS -16.2303 151.322 993 bom main 529 529 ______O__PO___ -1 -16.3000 151.500 993 4 -16.2909 151.467 TC -16.1000 151.000 7 4 259
1940091S13155 1940 19 SP EA NOT_NAMED 1940-04-05 00:00:00 TS -16.2393 151.254 main 529 512 ______P__OP___ -1 -16.2967 151.433 -16.3000 151.400 TC 40 993 -16.1213 150.930 7 4 266
1940091S13155 1940 19 SP EA NOT_NAMED 1940-04-05 03:00:00 TS -16.2502 151.034 main 502 491 ______P__PP___ -1 -16.2763 151.217 -16.2942 151.187 TC -16.1801 150.698 7 4 268
1940091S13155 1940 19 SP EA NOT_NAMED 1940-04-05 06:00:00 TS -16.2527 150.792 main 491 474 ______P__PP___ -1 -16.2476 150.979 -16.2793 150.953 TC -16.2313 150.443 7 5 270
1940091S13155 1940 19 SP EA NOT_NAMED 1940-04-05 09:00:00 TS -16.2532 150.534 main 474 469 ______P__PP___ -1 -16.2203 150.723 -16.2641 150.702 TC -16.2750 150.177 7 5 270
1940091S13155 1940 19 SP EA NOT_NAMED 1940-04-05 11:00:00 TS -16.2554 150.357 main 469 463 ______P__PO___ -1 -16.2078 150.544 -16.2583 150.526 TC -16.3000 150.000 7 5 270
1940091S13155 1940 19 SP EA NOT_NAMED 1940-04-05 12:00:00 TS -16.2546 150.269 main 463 433 ______P__PP___ -1 -16.2043 150.453 -16.2577 150.437 TC -16.3018 149.919 7 5 269
1940091S13155 1940 19 SP EA NOT_NAMED 1940-04-05 15:00:00 TS -16.2587 150.003 main 433 402 ______P__PP___ -1 -16.2093 150.172 -16.2691 150.161 TC -16.2976 149.677 7 5 267
1940091S13155 1940 19 SP EA NOT_NAMED 1940-04-05 18:00:00 TS -16.2845 149.731 main 402 382 ______P__PP___ -1 -16.2452 149.885 -16.3073 149.877 TC -16.3010 149.432 7 5 260
1940091S13155 1940 19 SP EA NOT_NAMED 1940-04-05 21:00:00 TS -16.3477 149.454 main 382 358 ______P__PP___ -1 -16.3216 149.594 -16.3812 149.589 TC -16.3401 149.178 7 6 253
1940091S13155 1940 19 SP EA NOT_NAMED 1940-04-05 23:00:00 TS -16.4183 149.265 bom main 358 344 ______O__PO___ -1 -16.4000 149.400 -16.4549 149.396 TC -16.4000 149.000 7 6 246
1940091S13155 1940 19 SP EA NOT_NAMED 1940-04-06 00:00:00 TS -16.4702 149.174 main 344 307 ______P__OP___ -1 -16.4650 149.313 -16.5000 149.300 TC -16.4457 148.908 7 7 232
1940091S13155 1940 19 SP EA NOT_NAMED 1940-04-06 03:00:00 TS -16.6849 148.903 main 307 271 ______P__PP___ -1 -16.6975 149.050 -16.7313 149.038 TC -16.6258 148.621 7 7 228
1940091S13155 1940 19 SP EA NOT_NAMED 1940-04-06 06:00:00 TS -16.9479 148.626 main 271 245 ______P__PP___ -1 -16.9753 148.784 -17.0122 148.774 TC -16.8560 148.321 7 8 224
1940091S13155 1940 19 SP EA NOT_NAMED 1940-04-06 09:00:00 TS -17.2424 148.343 main 234 222 ______P__PP___ -1 -17.2838 148.512 -17.3258 148.504 TC -17.1175 148.011 7 8 222
1940091S13155 1940 19 SP EA NOT_NAMED 1940-04-06 11:00:00 TS -17.4481 148.149 main 212 212 ______P__PO___ -1 -17.4993 148.327 -17.5449 148.321 TC -17.3000 147.800 7 8 222
1940091S13155 1940 19 SP EA NOT_NAMED 1940-04-06 12:00:00 TS -17.5508 148.051 main 212 180 ______P__PP___ -1 -17.6084 148.233 -17.6555 148.227 TC -17.3886 147.693 7 8 223
1940091S13155 1940 19 SP EA NOT_NAMED 1940-04-06 15:00:00 TS -17.8620 147.749 main 167 138 ______P__PP___ -1 -17.9344 147.942 -17.9846 147.941 TC -17.6671 147.364 7 9 223
1940091S13155 1940 19 SP EA NOT_NAMED 1940-04-06 18:00:00 TS -18.1653 147.438 main 124 87 ______P__PP___ -1 -18.2473 147.639 -18.2961 147.642 TC -17.9523 147.033 7 8 226
1940091S13155 1940 19 SP EA NOT_NAMED 1940-04-06 21:00:00 TS -18.4449 147.119 main 87 63 ______P__PP___ -1 -18.5325 147.321 -18.5735 147.329 TC -18.2285 146.708 7 8 229
1940091S13155 1940 19 SP EA NOT_NAMED 1940-04-06 23:00:00 TS -18.6104 146.904 bom main 63 52 ______O__PO___ -1 -18.7000 147.100 -18.7312 147.112 TC -18.4000 146.500 7 8 232
1940091S13155 1940 19 SP EA NOT_NAMED 1940-04-07 00:00:00 TS -18.6845 146.797 main 52 15 ______P__OP___ -1 -18.7731 146.986 -18.8000 147.000 TC -18.4803 146.406 7 7 238
1940091S13155 1940 19 SP EA NOT_NAMED 1940-04-07 03:00:00 TS -18.8757 146.460 main 15 0 ______P__PP___ -1 -18.9768 146.635 -18.9671 146.655 TC -18.7061 146.139 7 7 240
1940091S13155 1940 19 SP EA NOT_NAMED 1940-04-07 05:00:00 TS -18.9892 146.230 bom main 0 0 ______O__PP___ -1 -19.1000 146.400 -19.0574 146.419 TC -18.8444 145.964 7 8 244
1940091S13155 1940 19 SP EA NOT_NAMED 1940-04-07 06:00:00 TS -19.0412 146.104 main 0 0 ______P__OP___ -1 -19.1580 146.284 -19.1000 146.300 TC -18.9098 145.876 7 7 244
1940091S13155 1940 19 SP EA NOT_NAMED 1940-04-07 09:00:00 NR -19.2050 145.770 main 0 0 ______P___P___ -1 -19.3186 145.940 TC -19.0913 145.601 7 7 243
1940091S13155 1940 19 SP EA NOT_NAMED 1940-04-07 11:00:00 NR -19.3080 145.557 main 0 0 ______P___O___ -1 -19.4160 145.714 TC -19.2000 145.400 7 7 244
1940091S13155 1940 19 SP EA NOT_NAMED 1940-04-07 12:00:00 NR -19.3564 145.448 main 0 0 ______P___P___ -1 -19.4622 145.603 -19.2507 145.293 7 7 247
1940091S13155 1940 19 SP EA NOT_NAMED 1940-04-07 15:00:00 NR -19.4910 145.108 main 0 0 ______P___P___ -1 -19.5923 145.271 -19.3897 144.945 7 7 249
1940091S13155 1940 19 SP EA NOT_NAMED 1940-04-07 18:00:00 NR -19.6129 144.755 main 0 0 ______P___P___ -1 -19.7124 144.943 -19.5134 144.567 7 7 251
1940091S13155 1940 19 SP EA NOT_NAMED 1940-04-07 21:00:00 NR -19.7266 144.393 main 0 0 ______P___P___ -1 -19.8261 144.617 -19.6271 144.170 7 7 252
1940091S13155 1940 19 SP EA NOT_NAMED 1940-04-07 23:00:00 NR -19.8000 144.150 1006 bom main 0 ______O___O___ -1 -19.9000 144.400 1006 -19.7000 143.900 7 7 252

Digital Typhoon Data and Search

About IBTrACS Database

This database is a web-friendly format of International Best Track Archive for Climate Stewardship (IBTrACS), a global best track data archive curated by NOAA dating back to 1842.

Updated: 2021-12-03